Baraboo, WI

12:45 AM CDT on June 24, 2017 (GMT -0500)
Baraboo Wisconsin Dells

Weather History for KDLL - August, 2014

Change the Weather History Date:

Thursday, August 28, 2014

  Actual Average Record
Temperature  
Mean Temperature 65 °F -  
Max Temperature 76 °F 79 °F 97 °F (1955)
Min Temperature 55 °F 53 °F 35 °F (1986)
Growing Degree Days 15 (Base 50)    
Moisture  
Dew Point 57 °F    
Average Humidity 76    
Maximum Humidity 100    
Minimum Humidity 53    
Precipitation  
Precipitation 0.01 in - - ()
Sea Level Pressure  
Sea Level Pressure 30.09 in    
Wind  
Wind Speed 3 mph (SE)    
Max Wind Speed 14 mph    
Max Gust Speed 21 mph    
Visibility 9 miles    
Events Rain    
Averages and records for this station are not official NWS values.
T = Trace of Precipitation, MM = Missing Value Source: NWS Daily Summary

Daily Weather History Graph

Daily Weather History Graph

Search for Another Location

Airport or City:

Trip Planner

Search our weather history database for the weather conditions in past years. The results will help you decide how hot, cold, wet, or windy it might be!

Date:

Astronomy

Aug. 28, 2014 Rise Set
Actual Time 6:18 AM CDT 7:41 PM CDT
Civil Twilight 5:48 AM CDT 8:10 PM CDT
Nautical Twilight 5:12 AM CDT 8:46 PM CDT
Astronomical Twilight 4:34 AM CDT 9:24 PM CDT
Moon 9:17 AM CDT (8/28) 8:58 PM CDT (8/28)
Length of Visible Light 14h 22m
Length of Day
13h 22m
Waxing Crescent, 9% of the Moon is Illuminated
Aug 28
Waxing Crescent
Sep 2
First Quarter
Sep 8
Full
Sep 15
Last Quarter
Sep 24
New

Hourly Weather History & Observations

Time (CDT) Temp. Dew Point Humidity Pressure Visibility Wind Dir Wind Speed Gust Speed Precip Events Conditions
12:15 AM 59.4 °F 57.6 °F 94% 30.15 in 10.0 mi Calm Calm - N/A   Clear
12:30 AM 59.5 °F 57.6 °F 93% 30.15 in 10.0 mi Calm Calm - N/A   Clear
12:53 AM 57.2 °F 55.4 °F 94% 30.16 in 10.0 mi Calm Calm - N/A   Clear
1:13 AM 57.2 °F 57.2 °F 100% 30.15 in 10.0 mi Calm Calm - N/A   Clear
1:33 AM 59.0 °F 57.2 °F 94% 30.15 in 10.0 mi Calm Calm - N/A   Clear
1:35 AM 58.6 °F 56.3 °F 92% 30.16 in 10.0 mi Calm Calm - N/A   Clear
1:55 AM 58.3 °F 56.3 °F 93% 30.15 in 10.0 mi Calm Calm - N/A   Scattered Clouds
2:15 AM 58.1 °F 56.1 °F 93% 30.15 in 10.0 mi Calm Calm - N/A   Clear
2:35 AM 58.1 °F 56.3 °F 94% 30.14 in 10.0 mi Calm Calm - N/A   Clear
2:55 AM 57.2 °F 55.4 °F 94% 30.14 in 10.0 mi Calm Calm - N/A   Clear
3:15 AM 57.0 °F 55.2 °F 94% 30.14 in 10.0 mi Calm Calm - N/A   Clear
3:54 AM 57.2 °F 55.4 °F 94% 30.14 in 10.0 mi Calm Calm - N/A   Clear
4:00 AM 56.5 °F 54.9 °F 94% 30.13 in 10.0 mi Calm Calm - N/A   Clear
4:15 AM 56.5 °F 54.7 °F 94% 30.13 in 10.0 mi Calm Calm - N/A   Clear
4:35 AM 55.8 °F 54.0 °F 94% 30.14 in 10.0 mi Calm Calm - N/A   Clear
5:15 AM 57.6 °F 55.8 °F 94% 30.14 in 2.5 mi Calm Calm - N/A   Clear
5:35 AM 58.6 °F 57.2 °F 95% 30.13 in 2.5 mi Calm Calm - N/A   Clear
5:55 AM 59.2 °F 57.4 °F 94% 30.13 in 2.0 mi Calm Calm - N/A   Clear
6:15 AM 58.1 °F 56.5 °F 94% 30.13 in 2.0 mi Calm Calm - N/A   Clear
6:35 AM 58.3 °F 56.7 °F 94% 30.14 in 1.2 mi Calm Calm - N/A   Mist
6:55 AM 58.3 °F 56.8 °F 95% 30.14 in 2.5 mi Calm Calm - N/A   Clear
7:15 AM 59.9 °F 58.5 °F 95% 30.14 in 4.0 mi Calm Calm - N/A   Clear
7:35 AM 61.5 °F 59.9 °F 94% 30.14 in 7.0 mi Calm Calm - N/A   Clear
7:55 AM 62.8 °F 59.9 °F 90% 30.14 in 10.0 mi Calm Calm - N/A   Clear
8:15 AM 64.8 °F 59.7 °F 84% 30.13 in 10.0 mi SE 5.8 mph - N/A   Clear
8:35 AM 65.5 °F 57.7 °F 76% 30.14 in 10.0 mi SSE 6.9 mph - N/A   Clear
8:55 AM 66.4 °F 57.7 °F 74% 30.14 in 10.0 mi SSE 5.8 mph - N/A   Clear
9:15 AM 68.0 °F 57.4 °F 69% 30.14 in 10.0 mi SE 6.9 mph - N/A   Clear
9:35 AM 69.1 °F 58.1 °F 68% 30.14 in 10.0 mi SSE 10.4 mph - N/A   Clear
9:55 AM 68.9 °F 57.7 °F 68% 30.14 in 10.0 mi South 8.1 mph - N/A   Clear
10:15 AM 70.7 °F 57.7 °F 63% 30.14 in 10.0 mi SSE 9.2 mph - N/A   Clear
10:35 AM 71.2 °F 57.4 °F 61% 30.14 in 10.0 mi SSE 6.9 mph - N/A   Clear
10:55 AM 70.5 °F 57.7 °F 64% 30.14 in 10.0 mi SSE 8.1 mph - N/A   Scattered Clouds
11:15 AM 70.9 °F 58.3 °F 64% 30.13 in 10.0 mi South 5.8 mph - N/A   Mostly Cloudy
11:35 AM 73.6 °F 57.4 °F 57% 30.13 in 10.0 mi SSE 9.2 mph - N/A   Mostly Cloudy
11:55 AM 72.9 °F 57.6 °F 59% 30.12 in 10.0 mi ESE 9.2 mph - N/A   Mostly Cloudy
12:15 PM 73.9 °F 57.7 °F 57% 30.12 in 10.0 mi SE 8.1 mph - N/A   Mostly Cloudy
12:35 PM 75.0 °F 56.7 °F 53% 30.11 in 10.0 mi SSE 9.2 mph - N/A   Mostly Cloudy
12:55 PM 75.0 °F 57.4 °F 54% 30.11 in 10.0 mi SSE 8.1 mph - N/A   Scattered Clouds
1:15 PM 74.1 °F 56.7 °F 54% 30.10 in 10.0 mi South 8.1 mph - N/A   Mostly Cloudy
1:35 PM 73.2 °F 56.8 °F 56% 30.10 in 10.0 mi SE 6.9 mph - N/A   Overcast
1:50 PM 72.5 °F 57.4 °F 59% 30.10 in 10.0 mi SE 6.9 mph - N/A   Overcast
2:15 PM 71.8 °F 58.1 °F 62% 30.09 in 10.0 mi Calm Calm - N/A   Overcast
2:35 PM 72.7 °F 58.6 °F 61% 30.08 in 10.0 mi ESE 3.5 mph - N/A   Overcast
2:55 PM 72.5 °F 57.7 °F 60% 30.07 in 10.0 mi SE 6.9 mph - N/A   Overcast
3:15 PM 72.5 °F 58.8 °F 62% 30.06 in 10.0 mi ESE 4.6 mph - N/A   Overcast
3:35 PM 72.0 °F 59.4 °F 64% 30.06 in 10.0 mi SE 4.6 mph - N/A   Light Drizzle
3:55 PM 71.4 °F 59.9 °F 67% 30.05 in 10.0 mi ESE 4.6 mph - N/A Rain Light Rain
4:15 PM 70.9 °F 59.9 °F 68% 30.05 in 10.0 mi ESE 4.6 mph - N/A   Light Drizzle
4:35 PM 70.7 °F 60.6 °F 70% 30.04 in 10.0 mi East 3.5 mph - N/A   Overcast
4:55 PM 70.5 °F 60.6 °F 71% 30.04 in 10.0 mi East 5.8 mph - N/A   Mostly Cloudy
5:15 PM 70.2 °F 60.6 °F 72% 30.04 in 10.0 mi East 5.8 mph - N/A   Mostly Cloudy
5:35 PM 70.0 °F 60.3 °F 71% 30.04 in 10.0 mi ESE 8.1 mph - N/A   Mostly Cloudy
5:55 PM 69.8 °F 59.5 °F 70% 30.04 in 10.0 mi ESE 6.9 mph - N/A   Overcast
6:10 PM 69.8 °F 59.2 °F 69% 30.04 in 10.0 mi ESE 5.8 mph - N/A   Overcast
6:33 PM 68.0 °F 59.0 °F 73% 30.04 in 10.0 mi ESE 8.1 mph - N/A Rain Light Rain
6:35 PM 67.8 °F 59.4 °F 74% 30.04 in 10.0 mi ESE 8.1 mph - N/A Rain Light Rain
6:55 PM 66.6 °F 59.2 °F 77% 30.04 in 10.0 mi ESE 8.1 mph - N/A   Light Drizzle
7:15 PM 66.2 °F 58.6 °F 77% 30.04 in 10.0 mi ESE 9.2 mph - N/A   Mostly Cloudy
7:35 PM 66.0 °F 57.4 °F 74% 30.04 in 10.0 mi ESE 8.1 mph - N/A   Overcast
7:55 PM 65.5 °F 57.2 °F 75% 30.03 in 10.0 mi ESE 9.2 mph - N/A   Overcast
8:15 PM 64.8 °F 55.2 °F 71% 30.03 in 10.0 mi East 8.1 mph - N/A   Overcast
8:35 PM 64.4 °F 54.3 °F 70% 30.03 in 10.0 mi ESE 10.4 mph - N/A   Overcast
8:55 PM 64.4 °F 52.9 °F 66% 30.03 in 10.0 mi East 8.1 mph - N/A   Overcast
9:15 PM 64.4 °F 52.7 °F 66% 30.02 in 10.0 mi ESE 13.8 mph 20.7 mph N/A   Overcast
9:35 PM 64.0 °F 52.7 °F 67% 30.02 in 10.0 mi ESE 9.2 mph 17.3 mph N/A   Overcast
9:55 PM 64.0 °F 52.7 °F 67% 30.01 in 10.0 mi ESE 8.1 mph - N/A   Overcast
10:15 PM 63.9 °F 52.3 °F 66% 30.01 in 10.0 mi ESE 9.2 mph - N/A   Overcast
10:35 PM 64.0 °F 51.6 °F 64% 30.02 in 10.0 mi ESE 9.2 mph - N/A   Overcast
10:55 PM 63.0 °F 52.7 °F 69% 30.02 in 10.0 mi SE 5.8 mph - N/A   Drizzle
11:15 PM 61.9 °F 54.5 °F 77% 30.02 in 10.0 mi ESE 3.5 mph - 0.01 in Rain Light Rain
11:35 PM 61.2 °F 55.4 °F 81% 30.02 in 10.0 mi ESE 3.5 mph - 0.01 in   Overcast
11:55 PM 61.2 °F 55.6 °F 82% 30.00 in 10.0 mi SE 3.5 mph - 0.01 in Rain Rain